Terminal Aerodrome Forecast
Issued by NWS

Home | Current Version | Previous Version | Text Only | Print | Product List | Glossary On
Versions: 1 2 3 4 5 6 7 8 9 10 11 12 13
000
FTUS43 KILX 012329
TAFDEC
TAF
KDEC 012329Z 0200/0224 19008KT P6SM VCTS SCT040CB BKN070
      TEMPO 0200/0201 BKN040CB
     FM020100 21005KT P6SM SCT080
      TEMPO 0208/0212 4SM BR
     FM021700 22008KT P6SM SCT080=

USA.gov is the U.S. government's official web portal to all federal, state and local government web resources and services.